sensor_id;sensor_type;location;lat;lon;timestamp;pressure;altitude;pressure_sealevel;temperature;humidity
33414;BME280;60055;41.884;12.534;2023-03-22T00:01:24;101019.84;;;14.11;63.75
33414;BME280;60055;41.884;12.534;2023-03-22T00:03:50;101021.63;;;14.10;63.92
33414;BME280;60055;41.884;12.534;2023-03-22T00:06:17;101017.47;;;14.05;64.18
33414;BME280;60055;41.884;12.534;2023-03-22T00:08:47;101013.38;;;13.98;64.46
33414;BME280;60055;41.884;12.534;2023-03-22T00:11:14;101012.94;;;14.07;64.27
33414;BME280;60055;41.884;12.534;2023-03-22T00:13:40;101014.72;;;14.06;63.96
33414;BME280;60055;41.884;12.534;2023-03-22T00:16:07;101016.47;;;14.07;63.87
33414;BME280;60055;41.884;12.534;2023-03-22T00:18:34;101018.78;;;14.15;64.20
33414;BME280;60055;41.884;12.534;2023-03-22T00:20:59;101015.44;;;14.10;65.18
33414;BME280;60055;41.884;12.534;2023-03-22T00:23:26;101014.72;;;14.06;66.12
33414;BME280;60055;41.884;12.534;2023-03-22T00:25:52;101012.94;;;14.07;66.39
33414;BME280;60055;41.884;12.534;2023-03-22T00:28:18;101023.66;;;14.05;65.89
33414;BME280;60055;41.884;12.534;2023-03-22T00:30:56;101014.88;;;14.03;66.75
33414;BME280;60055;41.884;12.534;2023-03-22T00:33:22;101008.78;;;14.01;66.34
33414;BME280;60055;41.884;12.534;2023-03-22T00:35:52;101012.44;;;13.99;66.70
33414;BME280;60055;41.884;12.534;2023-03-22T00:38:19;101008.06;;;13.98;66.62
33414;BME280;60055;41.884;12.534;2023-03-22T00:40:44;101011.28;;;14.04;66.83
33414;BME280;60055;41.884;12.534;2023-03-22T00:43:10;101005.06;;;14.05;nan
33414;BME280;60055;41.884;12.534;2023-03-22T00:45:35;101006.63;;;14.09;66.19
33414;BME280;60055;41.884;12.534;2023-03-22T00:48:02;101001.19;;;14.12;66.57
33414;BME280;60055;41.884;12.534;2023-03-22T00:50:28;101004.97;;;14.07;66.36
33414;BME280;60055;41.884;12.534;2023-03-22T00:52:54;101008.47;;;13.89;67.72
33414;BME280;60055;41.884;12.534;2023-03-22T00:55:21;101004.97;;;13.88;67.57
33414;BME280;60055;41.884;12.534;2023-03-22T00:57:47;101011.84;;;13.92;67.44
33414;BME280;60055;41.884;12.534;2023-03-22T01:00:12;101005.44;;;13.96;67.22
33414;BME280;60055;41.884;12.534;2023-03-22T01:02:39;101000.28;;;13.93;67.37
33414;BME280;60055;41.884;12.534;2023-03-22T01:05:05;101004.00;;;13.89;67.68
33414;BME280;60055;41.884;12.534;2023-03-22T01:07:31;101001.44;;;13.88;67.49
33414;BME280;60055;41.884;12.534;2023-03-22T01:09:57;101000.78;;;13.62;68.87
33414;BME280;60055;41.884;12.534;2023-03-22T01:12:23;101001.78;;;13.60;68.21
33414;BME280;60055;41.884;12.534;2023-03-22T01:14:49;100989.47;;;13.39;69.25
33414;BME280;60055;41.884;12.534;2023-03-22T01:17:14;100990.59;;;13.33;69.20
33414;BME280;60055;41.884;12.534;2023-03-22T01:19:40;100991.00;;;13.44;69.43
33414;BME280;60055;41.884;12.534;2023-03-22T01:22:06;100987.94;;;13.53;69.06
33414;BME280;60055;41.884;12.534;2023-03-22T01:24:32;100992.00;;;13.62;68.44
33414;BME280;60055;41.884;12.534;2023-03-22T01:26:57;100983.69;;;13.49;68.90
33414;BME280;60055;41.884;12.534;2023-03-22T01:29:24;100989.59;;;13.56;68.50
33414;BME280;60055;41.884;12.534;2023-03-22T01:31:49;100987.53;;;13.62;68.33
33414;BME280;60055;41.884;12.534;2023-03-22T01:34:17;100978.91;;;13.57;68.28
33414;BME280;60055;41.884;12.534;2023-03-22T01:36:42;100992.09;;;13.59;68.16
33414;BME280;60055;41.884;12.534;2023-03-22T01:39:08;100985.69;;;13.64;68.30
33414;BME280;60055;41.884;12.534;2023-03-22T01:41:35;100992.31;;;13.54;68.60
33414;BME280;60055;41.884;12.534;2023-03-22T01:44:19;100999.47;;;13.32;69.11
33414;BME280;60055;41.884;12.534;2023-03-22T01:46:47;100993.66;;;13.44;68.87
33414;BME280;60055;41.884;12.534;2023-03-22T01:49:44;100996.97;;;13.49;68.59
33414;BME280;60055;41.884;12.534;2023-03-22T01:52:13;100992.06;;;13.40;69.05
33414;BME280;60055;41.884;12.534;2023-03-22T01:54:46;100995.44;;;13.23;69.37
33414;BME280;60055;41.884;12.534;2023-03-22T01:57:13;100995.25;;;13.28;69.83
33414;BME280;60055;41.884;12.534;2023-03-22T01:59:42;101001.47;;;13.27;69.91
33414;BME280;60055;41.884;12.534;2023-03-22T02:02:10;100991.72;;;13.27;70.17
33414;BME280;60055;41.884;12.534;2023-03-22T02:04:42;100990.72;;;13.30;69.76
33414;BME280;60055;41.884;12.534;2023-03-22T02:07:12;100994.75;;;13.18;70.62
33414;BME280;60055;41.884;12.534;2023-03-22T02:09:40;100991.00;;;13.24;70.56
33414;BME280;60055;41.884;12.534;2023-03-22T02:17:18;100983.88;;;13.04;71.67
33414;BME280;60055;41.884;12.534;2023-03-22T02:20:31;100990.88;;;13.05;71.43
33414;BME280;60055;41.884;12.534;2023-03-22T02:24:02;100981.41;;;13.00;71.64
33414;BME280;60055;41.884;12.534;2023-03-22T02:29:02;100993.31;;;12.90;72.09
33414;BME280;60055;41.884;12.534;2023-03-22T02:32:13;101000.56;;;12.85;71.95
33414;BME280;60055;41.884;12.534;2023-03-22T02:35:43;100999.22;;;12.53;73.77
33414;BME280;60055;41.884;12.534;2023-03-22T02:38:00;100999.41;;;12.70;73.01
33414;BME280;60055;41.884;12.534;2023-03-22T02:49:05;100992.25;;;12.72;72.51
33414;BME280;60055;41.884;12.534;2023-03-22T02:51:42;100999.22;;;12.74;72.13
33414;BME280;60055;41.884;12.534;2023-03-22T02:56:52;100995.28;;;12.63;72.49
33414;BME280;60055;41.884;12.534;2023-03-22T02:59:21;100997.88;;;12.64;72.37
33414;BME280;60055;41.884;12.534;2023-03-22T03:01:58;101000.22;;;12.72;71.88
33414;BME280;60055;41.884;12.534;2023-03-22T03:04:27;100998.47;;;12.71;72.16
33414;BME280;60055;41.884;12.534;2023-03-22T03:07:00;100987.97;;;12.69;71.88
33414;BME280;60055;41.884;12.534;2023-03-22T03:09:28;100987.34;;;12.63;71.89
33414;BME280;60055;41.884;12.534;2023-03-22T03:11:55;100990.72;;;12.66;71.50
33414;BME280;60055;41.884;12.534;2023-03-22T03:14:26;100999.78;;;12.61;71.46
33414;BME280;60055;41.884;12.534;2023-03-22T03:17:09;100998.06;;;12.60;71.25
33414;BME280;60055;41.884;12.534;2023-03-22T03:22:52;100991.78;;;12.62;71.76
33414;BME280;60055;41.884;12.534;2023-03-22T03:25:39;100996.06;;;12.65;71.26
33414;BME280;60055;41.884;12.534;2023-03-22T03:30:56;100997.06;;;12.62;72.11
33414;BME280;60055;41.884;12.534;2023-03-22T03:33:26;101002.81;;;12.73;71.55
33414;BME280;60055;41.884;12.534;2023-03-22T03:35:59;101003.72;;;12.72;70.82
33414;BME280;60055;41.884;12.534;2023-03-22T03:38:28;101010.31;;;12.62;71.66
33414;BME280;60055;41.884;12.534;2023-03-22T03:41:11;101010.38;;;12.61;71.41
33414;BME280;60055;41.884;12.534;2023-03-22T03:43:38;101011.06;;;12.66;71.49
33414;BME280;60055;41.884;12.534;2023-03-22T03:46:05;101020.63;;;12.70;71.19
33414;BME280;60055;41.884;12.534;2023-03-22T03:48:32;101011.94;;;12.66;70.93
33414;BME280;60055;41.884;12.534;2023-03-22T03:51:00;101013.34;;;12.75;70.39
33414;BME280;60055;41.884;12.534;2023-03-22T03:53:26;101016.97;;;12.72;70.50
33414;BME280;60055;41.884;12.534;2023-03-22T03:55:52;101010.50;;;12.79;70.29
33414;BME280;60055;41.884;12.534;2023-03-22T03:58:18;101013.06;;;12.81;70.23
33414;BME280;60055;41.884;12.534;2023-03-22T04:00:45;101009.63;;;12.79;70.25
33414;BME280;60055;41.884;12.534;2023-03-22T04:03:12;101020.22;;;12.57;70.82
33414;BME280;60055;41.884;12.534;2023-03-22T04:05:37;101024.69;;;12.57;71.27
33414;BME280;60055;41.884;12.534;2023-03-22T04:08:03;101019.50;;;12.54;71.13
33414;BME280;60055;41.884;12.534;2023-03-22T04:10:29;101023.84;;;12.55;70.98
33414;BME280;60055;41.884;12.534;2023-03-22T04:12:55;101018.38;;;12.59;70.82
33414;BME280;60055;41.884;12.534;2023-03-22T04:15:20;101021.69;;;12.64;70.65
33414;BME280;60055;41.884;12.534;2023-03-22T04:17:46;101021.75;;;12.41;71.82
33414;BME280;60055;41.884;12.534;2023-03-22T04:20:12;101025.38;;;12.39;71.89
33414;BME280;60055;41.884;12.534;2023-03-22T04:22:39;101023.78;;;12.35;71.98
33414;BME280;60055;41.884;12.534;2023-03-22T04:25:10;101021.53;;;12.24;72.19
33414;BME280;60055;41.884;12.534;2023-03-22T04:27:41;101021.94;;;12.37;71.77
33414;BME280;60055;41.884;12.534;2023-03-22T04:30:09;101022.03;;;12.34;71.90
33414;BME280;60055;41.884;12.534;2023-03-22T04:32:37;101020.47;;;12.51;71.17
33414;BME280;60055;41.884;12.534;2023-03-22T04:35:03;101014.91;;;12.57;70.59
33414;BME280;60055;41.884;12.534;2023-03-22T04:37:29;101019.13;;;12.63;70.36
33414;BME280;60055;41.884;12.534;2023-03-22T04:39:58;101021.78;;;12.63;70.69
33414;BME280;60055;41.884;12.534;2023-03-22T04:42:23;101023.25;;;12.48;71.15
33414;BME280;60055;41.884;12.534;2023-03-22T04:44:49;101023.69;;;12.59;70.92
33414;BME280;60055;41.884;12.534;2023-03-22T04:47:14;101024.97;;;12.71;70.18
33414;BME280;60055;41.884;12.534;2023-03-22T04:49:40;101025.91;;;12.70;69.98
33414;BME280;60055;41.884;12.534;2023-03-22T04:52:06;101034.72;;;12.70;70.46
33414;BME280;60055;41.884;12.534;2023-03-22T04:54:31;101025.06;;;12.69;70.48
33414;BME280;60055;41.884;12.534;2023-03-22T04:56:57;101024.97;;;12.71;70.30
33414;BME280;60055;41.884;12.534;2023-03-22T04:59:22;101029.22;;;12.75;69.72
33414;BME280;60055;41.884;12.534;2023-03-22T05:01:49;101025.91;;;12.70;70.04
33414;BME280;60055;41.884;12.534;2023-03-22T05:04:16;101026.53;;;12.76;69.94
33414;BME280;60055;41.884;12.534;2023-03-22T05:06:42;101020.75;;;12.67;70.14
33414;BME280;60055;41.884;12.534;2023-03-22T05:09:09;101027.34;;;12.57;70.69
33414;BME280;60055;41.884;12.534;2023-03-22T05:11:34;101027.66;;;12.48;70.99
33414;BME280;60055;41.884;12.534;2023-03-22T05:14:00;101026.63;;;12.30;71.41
33414;BME280;60055;41.884;12.534;2023-03-22T05:16:26;101027.81;;;12.21;71.93
33414;BME280;60055;41.884;12.534;2023-03-22T05:18:51;101021.94;;;12.37;71.26
33414;BME280;60055;41.884;12.534;2023-03-22T05:21:22;101026.66;;;12.28;72.05
33414;BME280;60055;41.884;12.534;2023-03-22T05:23:54;101029.47;;;12.24;71.72
33414;BME280;60055;41.884;12.534;2023-03-22T05:26:19;101036.22;;;12.33;71.84
33414;BME280;60055;41.884;12.534;2023-03-22T05:28:51;101031.03;;;12.29;71.59
33414;BME280;60055;41.884;12.534;2023-03-22T05:31:17;101036.16;;;12.34;71.89
33414;BME280;60055;41.884;12.534;2023-03-22T05:33:46;101032.72;;;12.32;71.55
33414;BME280;60055;41.884;12.534;2023-03-22T05:36:11;101036.84;;;12.39;71.85
33414;BME280;60055;41.884;12.534;2023-03-22T05:38:37;101037.41;;;12.47;71.36
33414;BME280;60055;41.884;12.534;2023-03-22T05:41:02;101041.31;;;12.60;70.57
33414;BME280;60055;41.884;12.534;2023-03-22T05:43:27;101037.59;;;12.43;71.38
33414;BME280;60055;41.884;12.534;2023-03-22T05:45:53;101050.31;;;12.56;70.85
33414;BME280;60055;41.884;12.534;2023-03-22T05:48:18;101045.50;;;12.66;70.32
33414;BME280;60055;41.884;12.534;2023-03-22T05:50:46;101041.50;;;12.77;70.51
33414;BME280;60055;41.884;12.534;2023-03-22T05:53:11;101045.81;;;12.80;69.71
33414;BME280;60055;41.884;12.534;2023-03-22T05:55:37;101051.41;;;12.72;69.46
33414;BME280;60055;41.884;12.534;2023-03-22T05:58:04;101052.88;;;12.58;70.04
33414;BME280;60055;41.884;12.534;2023-03-22T06:00:30;101054.66;;;12.57;70.26
33414;BME280;60055;41.884;12.534;2023-03-22T06:03:00;101048.41;;;12.60;69.90
33414;BME280;60055;41.884;12.534;2023-03-22T06:05:29;101056.03;;;12.67;69.77
33414;BME280;60055;41.884;12.534;2023-03-22T06:07:56;101054.03;;;12.74;69.77
33414;BME280;60055;41.884;12.534;2023-03-22T06:10:22;101059.69;;;12.87;69.48
33414;BME280;60055;41.884;12.534;2023-03-22T06:12:48;101053.84;;;13.00;68.86
33414;BME280;60055;41.884;12.534;2023-03-22T06:15:14;101056.03;;;12.89;69.36
33414;BME280;60055;41.884;12.534;2023-03-22T06:17:39;101065.34;;;12.99;68.35
33414;BME280;60055;41.884;12.534;2023-03-22T06:20:07;101058.41;;;13.18;68.37
33414;BME280;60055;41.884;12.534;2023-03-22T06:22:34;101059.66;;;13.10;68.61
33414;BME280;60055;41.884;12.534;2023-03-22T06:25:00;101064.66;;;13.17;68.28
33414;BME280;60055;41.884;12.534;2023-03-22T06:27:25;101069.75;;;13.22;67.62
33414;BME280;60055;41.884;12.534;2023-03-22T06:29:50;101059.09;;;13.23;67.59
33414;BME280;60055;41.884;12.534;2023-03-22T06:32:19;101069.63;;;13.45;66.48
33414;BME280;60055;41.884;12.534;2023-03-22T06:34:47;101073.84;;;13.51;66.45
33414;BME280;60055;41.884;12.534;2023-03-22T06:37:14;101079.16;;;13.71;66.25
33414;BME280;60055;41.884;12.534;2023-03-22T06:39:41;101079.81;;;13.76;65.55
33414;BME280;60055;41.884;12.534;2023-03-22T06:42:07;101079.16;;;13.91;65.42
33414;BME280;60055;41.884;12.534;2023-03-22T06:44:33;101081.34;;;14.02;64.68
33414;BME280;60055;41.884;12.534;2023-03-22T06:46:59;101091.69;;;14.08;64.13
33414;BME280;60055;41.884;12.534;2023-03-22T06:49:25;101083.53;;;13.92;64.04
33414;BME280;60055;41.884;12.534;2023-03-22T06:51:52;101086.44;;;13.86;65.05
33414;BME280;60055;41.884;12.534;2023-03-22T06:54:17;101082.53;;;13.95;64.22
33414;BME280;60055;41.884;12.534;2023-03-22T06:56:43;101087.75;;;13.96;64.63
33414;BME280;60055;41.884;12.534;2023-03-22T06:59:09;101082.69;;;14.10;63.53
33414;BME280;60055;41.884;12.534;2023-03-22T07:01:35;101083.56;;;14.11;63.01
33414;BME280;60055;41.884;12.534;2023-03-22T07:04:00;101085.16;;;14.35;62.59
33414;BME280;60055;41.884;12.534;2023-03-22T07:06:27;101085.66;;;14.23;62.17
33414;BME280;60055;41.884;12.534;2023-03-22T07:08:53;101078.91;;;14.55;61.79
33414;BME280;60055;41.884;12.534;2023-03-22T07:11:19;101087.25;;;14.66;61.34
33414;BME280;60055;41.884;12.534;2023-03-22T07:13:50;101088.59;;;14.74;60.76
33414;BME280;60055;41.884;12.534;2023-03-22T07:16:16;101092.13;;;14.94;60.75
33414;BME280;60055;41.884;12.534;2023-03-22T07:18:41;101084.50;;;15.22;59.34
33414;BME280;60055;41.884;12.534;2023-03-22T07:21:08;101088.91;;;15.23;58.95
33414;BME280;60055;41.884;12.534;2023-03-22T07:23:33;101086.56;;;15.17;58.99
33414;BME280;60055;41.884;12.534;2023-03-22T07:25:59;101090.69;;;15.22;58.68
33414;BME280;60055;41.884;12.534;2023-03-22T07:28:25;101091.06;;;15.15;58.73
33414;BME280;60055;41.884;12.534;2023-03-22T07:31:11;101100.63;;;15.19;58.12
33414;BME280;60055;41.884;12.534;2023-03-22T07:33:38;101094.75;;;15.12;57.85
33414;BME280;60055;41.884;12.534;2023-03-22T07:36:05;101095.91;;;15.07;58.85
33414;BME280;60055;41.884;12.534;2023-03-22T07:38:31;101093.00;;;15.30;58.45
33414;BME280;60055;41.884;12.534;2023-03-22T07:40:56;101095.88;;;15.43;57.98
33414;BME280;60055;41.884;12.534;2023-03-22T07:43:22;101094.09;;;15.43;58.34
33414;BME280;60055;41.884;12.534;2023-03-22T07:45:49;101092.38;;;15.42;58.08
33414;BME280;60055;41.884;12.534;2023-03-22T07:48:15;101094.00;;;15.45;58.02
33414;BME280;60055;41.884;12.534;2023-03-22T07:50:41;101089.19;;;15.53;57.86
33414;BME280;60055;41.884;12.534;2023-03-22T07:53:07;101087.09;;;15.76;57.27
33414;BME280;60055;41.884;12.534;2023-03-22T07:55:33;101093.59;;;15.88;56.64
33414;BME280;60055;41.884;12.534;2023-03-22T07:57:59;101091.31;;;15.98;56.28
33414;BME280;60055;41.884;12.534;2023-03-22T08:00:24;101095.25;;;16.23;55.97
33414;BME280;60055;41.884;12.534;2023-03-22T08:02:50;101096.31;;;16.36;55.26
33414;BME280;60055;41.884;12.534;2023-03-22T08:05:15;101099.94;;;16.51;55.43
33414;BME280;60055;41.884;12.534;2023-03-22T08:07:41;101098.72;;;16.74;54.60
33414;BME280;60055;41.884;12.534;2023-03-22T08:10:06;101099.91;;;16.84;53.70
33414;BME280;60055;41.884;12.534;2023-03-22T08:12:32;101105.78;;;16.91;54.34
33414;BME280;60055;41.884;12.534;2023-03-22T08:14:57;101105.03;;;17.34;52.77
33414;BME280;60055;41.884;12.534;2023-03-22T08:17:23;101107.41;;;17.70;52.27
33414;BME280;60055;41.884;12.534;2023-03-22T08:19:51;101096.22;;;17.93;50.85
33414;BME280;60055;41.884;12.534;2023-03-22T08:22:20;101106.31;;;18.02;50.69
33414;BME280;60055;41.884;12.534;2023-03-22T08:24:51;101109.66;;;17.92;50.52
33414;BME280;60055;41.884;12.534;2023-03-22T08:27:17;101105.09;;;18.22;49.78
33414;BME280;60055;41.884;12.534;2023-03-22T08:29:45;101112.88;;;18.41;50.18
33414;BME280;60055;41.884;12.534;2023-03-22T08:32:12;101116.31;;;18.71;49.64
33414;BME280;60055;41.884;12.534;2023-03-22T08:34:38;101109.44;;;18.81;49.27
33414;BME280;60055;41.884;12.534;2023-03-22T08:37:05;101108.06;;;18.46;49.22
33414;BME280;60055;41.884;12.534;2023-03-22T08:39:31;101103.88;;;18.27;49.86
33414;BME280;60055;41.884;12.534;2023-03-22T08:41:57;101108.84;;;18.48;49.73
33414;BME280;60055;41.884;12.534;2023-03-22T08:44:22;101102.47;;;18.78;48.49
33414;BME280;60055;41.884;12.534;2023-03-22T08:46:48;101102.13;;;18.97;47.92
33414;BME280;60055;41.884;12.534;2023-03-22T08:49:14;101102.25;;;18.39;48.97
33414;BME280;60055;41.884;12.534;2023-03-22T08:51:40;101101.41;;;18.67;48.24
33414;BME280;60055;41.884;12.534;2023-03-22T08:54:06;101096.13;;;18.79;48.02
33414;BME280;60055;41.884;12.534;2023-03-22T08:56:31;101097.38;;;18.88;47.47
33414;BME280;60055;41.884;12.534;2023-03-22T08:59:02;101097.56;;;18.85;48.23
33414;BME280;60055;41.884;12.534;2023-03-22T09:01:29;101099.22;;;18.73;48.13
33414;BME280;60055;41.884;12.534;2023-03-22T09:03:56;101100.06;;;18.88;48.05
33414;BME280;60055;41.884;12.534;2023-03-22T09:06:22;101090.19;;;19.03;47.68
33414;BME280;60055;41.884;12.534;2023-03-22T09:08:47;101083.38;;;18.97;47.84
33414;BME280;60055;41.884;12.534;2023-03-22T09:11:17;101093.97;;;19.13;48.29
33414;BME280;60055;41.884;12.534;2023-03-22T09:13:43;101087.66;;;19.41;46.60
33414;BME280;60055;41.884;12.534;2023-03-22T09:16:09;101086.53;;;19.30;46.17
33414;BME280;60055;41.884;12.534;2023-03-22T09:18:36;101082.03;;;19.58;44.90
33414;BME280;60055;41.884;12.534;2023-03-22T09:21:02;101089.13;;;19.59;45.56
33414;BME280;60055;41.884;12.534;2023-03-22T09:23:28;101082.22;;;19.42;45.49
33414;BME280;60055;41.884;12.534;2023-03-22T09:25:59;101087.38;;;19.58;45.52
33414;BME280;60055;41.884;12.534;2023-03-22T09:28:24;101084.06;;;19.54;45.30
33414;BME280;60055;41.884;12.534;2023-03-22T09:30:50;101081.31;;;19.81;43.89
33414;BME280;60055;41.884;12.534;2023-03-22T09:33:15;101081.22;;;19.70;45.67
33414;BME280;60055;41.884;12.534;2023-03-22T09:35:42;101078.13;;;19.88;45.30
33414;BME280;60055;41.884;12.534;2023-03-22T09:38:08;101083.50;;;19.22;45.42
33414;BME280;60055;41.884;12.534;2023-03-22T09:40:36;101080.63;;;19.25;45.99
33414;BME280;60055;41.884;12.534;2023-03-22T09:43:06;101081.22;;;19.16;46.18
33414;BME280;60055;41.884;12.534;2023-03-22T09:45:45;101077.97;;;19.65;46.21
33414;BME280;60055;41.884;12.534;2023-03-22T09:48:21;101086.31;;;19.60;45.16
33414;BME280;60055;41.884;12.534;2023-03-22T09:50:50;101073.81;;;19.73;46.00
33414;BME280;60055;41.884;12.534;2023-03-22T09:53:17;101076.94;;;19.80;45.27
33414;BME280;60055;41.884;12.534;2023-03-22T09:58:35;101072.69;;;19.24;46.11
33414;BME280;60055;41.884;12.534;2023-03-22T10:01:15;101070.56;;;19.56;45.86
33414;BME280;60055;41.884;12.534;2023-03-22T10:06:24;101070.41;;;19.97;46.05
33414;BME280;60055;41.884;12.534;2023-03-22T10:09:18;101072.16;;;19.46;46.46
33414;BME280;60055;41.884;12.534;2023-03-22T10:14:30;101071.53;;;19.67;45.43
33414;BME280;60055;41.884;12.534;2023-03-22T10:16:59;101065.53;;;19.64;45.93
33414;BME280;60055;41.884;12.534;2023-03-22T10:19:35;101072.69;;;19.51;46.70
33414;BME280;60055;41.884;12.534;2023-03-22T10:22:06;101072.53;;;19.39;46.25
33414;BME280;60055;41.884;12.534;2023-03-22T10:24:43;101060.72;;;19.56;46.01
33414;BME280;60055;41.884;12.534;2023-03-22T10:27:16;101063.50;;;19.55;45.81
33414;BME280;60055;41.884;12.534;2023-03-22T10:30:07;101063.25;;;19.18;46.46
33414;BME280;60055;41.884;12.534;2023-03-22T10:32:49;101059.25;;;19.38;46.51
33414;BME280;60055;41.884;12.534;2023-03-22T10:35:16;101056.31;;;19.28;46.97
33414;BME280;60055;41.884;12.534;2023-03-22T10:37:43;101057.69;;;19.21;46.67
33414;BME280;60055;41.884;12.534;2023-03-22T10:40:17;101058.63;;;18.94;46.90
33414;BME280;60055;41.884;12.534;2023-03-22T10:42:50;101060.34;;;18.68;47.78
33414;BME280;60055;41.884;12.534;2023-03-22T10:45:18;101059.31;;;18.97;47.07
33414;BME280;60055;41.884;12.534;2023-03-22T10:48:10;101049.75;;;18.93;47.49
33414;BME280;60055;41.884;12.534;2023-03-22T10:50:36;101059.47;;;19.08;46.71
33414;BME280;60055;41.884;12.534;2023-03-22T10:53:06;101054.59;;;19.27;46.78
33414;BME280;60055;41.884;12.534;2023-03-22T10:55:39;101049.38;;;19.26;46.23
33414;BME280;60055;41.884;12.534;2023-03-22T10:58:21;101051.59;;;19.19;47.39
33414;BME280;60055;41.884;12.534;2023-03-22T11:00:52;101045.31;;;19.33;47.48
33414;BME280;60055;41.884;12.534;2023-03-22T11:03:26;101053.06;;;19.23;48.37
33414;BME280;60055;41.884;12.534;2023-03-22T11:06:15;101053.22;;;19.34;48.90
33414;BME280;60055;41.884;12.534;2023-03-22T11:08:56;101034.09;;;19.41;48.44
33414;BME280;60055;41.884;12.534;2023-03-22T11:11:31;101037.72;;;19.39;49.67
33414;BME280;60055;41.884;12.534;2023-03-22T11:16:57;101050.97;;;19.28;50.48
33414;BME280;60055;41.884;12.534;2023-03-22T11:19:26;101034.97;;;19.41;50.38
33414;BME280;60055;41.884;12.534;2023-03-22T11:22:23;101036.50;;;19.31;50.88
33414;BME280;60055;41.884;12.534;2023-03-22T11:24:54;101032.84;;;19.46;51.89
33414;BME280;60055;41.884;12.534;2023-03-22T11:27:30;101038.63;;;19.53;52.47
33414;BME280;60055;41.884;12.534;2023-03-22T11:29:59;101031.97;;;19.46;52.69
33414;BME280;60055;41.884;12.534;2023-03-22T11:32:35;101027.84;;;19.40;51.56
33414;BME280;60055;41.884;12.534;2023-03-22T11:35:11;101031.34;;;19.55;53.49
33414;BME280;60055;41.884;12.534;2023-03-22T11:37:51;101031.03;;;19.72;53.50
33414;BME280;60055;41.884;12.534;2023-03-22T11:40:22;101032.00;;;19.71;54.30
33414;BME280;60055;41.884;12.534;2023-03-22T11:45:36;101033.72;;;19.59;52.39
33414;BME280;60055;41.884;12.534;2023-03-22T11:48:22;101027.59;;;19.57;52.59
33414;BME280;60055;41.884;12.534;2023-03-22T11:50:51;101017.09;;;19.54;52.55
33414;BME280;60055;41.884;12.534;2023-03-22T11:53:22;101022.78;;;19.62;52.44
33414;BME280;60055;41.884;12.534;2023-03-22T11:55:50;101013.72;;;19.38;53.33
33414;BME280;60055;41.884;12.534;2023-03-22T11:58:28;101017.41;;;19.50;53.11
33414;BME280;60055;41.884;12.534;2023-03-22T12:00:58;101019.44;;;19.46;52.45
33414;BME280;60055;41.884;12.534;2023-03-22T12:03:29;101015.06;;;19.58;52.51
33414;BME280;60055;41.884;12.534;2023-03-22T12:05:57;101011.28;;;19.60;52.59
33414;BME280;60055;41.884;12.534;2023-03-22T12:08:46;101011.50;;;19.45;52.99
33414;BME280;60055;41.884;12.534;2023-03-22T12:11:42;101006.59;;;19.51;52.42
33414;BME280;60055;41.884;12.534;2023-03-22T12:17:32;101002.75;;;19.93;51.70
33414;BME280;60055;41.884;12.534;2023-03-22T12:28:55;100985.22;;;20.25;50.62
33414;BME280;60055;41.884;12.534;2023-03-22T12:31:41;100990.41;;;20.16;51.94
33414;BME280;60055;41.884;12.534;2023-03-22T12:34:16;100986.03;;;20.27;51.87
33414;BME280;60055;41.884;12.534;2023-03-22T12:36:48;100991.03;;;20.19;51.74
33414;BME280;60055;41.884;12.534;2023-03-22T12:39:28;100996.06;;;20.24;50.76
33414;BME280;60055;41.884;12.534;2023-03-22T12:41:59;100993.63;;;20.08;51.89
33414;BME280;60055;41.884;12.534;2023-03-22T12:44:31;100997.03;;;20.35;52.04
33414;BME280;60055;41.884;12.534;2023-03-22T12:47:04;100987.63;;;20.30;52.10
33414;BME280;60055;41.884;12.534;2023-03-22T12:49:40;100999.63;;;20.37;51.92
33414;BME280;60055;41.884;12.534;2023-03-22T12:52:30;100989.88;;;20.60;50.91
33414;BME280;60055;41.884;12.534;2023-03-22T12:54:59;100994.88;;;20.77;50.67
33414;BME280;60055;41.884;12.534;2023-03-22T12:57:25;100992.81;;;20.80;50.25
33414;BME280;60055;41.884;12.534;2023-03-22T13:03:06;100989.03;;;20.59;51.09
33414;BME280;60055;41.884;12.534;2023-03-22T13:05:36;100985.72;;;20.56;50.99
33414;BME280;60055;41.884;12.534;2023-03-22T13:08:07;100979.41;;;20.80;49.93
33414;BME280;60055;41.884;12.534;2023-03-22T13:15:33;100972.84;;;20.84;49.53
33414;BME280;60055;41.884;12.534;2023-03-22T13:18:00;100972.25;;;20.92;49.29
33414;BME280;60055;41.884;12.534;2023-03-22T13:20:27;100967.69;;;20.58;50.90
33414;BME280;60055;41.884;12.534;2023-03-22T13:22:59;100960.78;;;20.90;50.18
33414;BME280;60055;41.884;12.534;2023-03-22T13:25:37;100955.09;;;20.82;49.80
33414;BME280;60055;41.884;12.534;2023-03-22T13:28:20;100951.81;;;20.78;50.19
33414;BME280;60055;41.884;12.534;2023-03-22T13:30:50;100956.16;;;20.68;50.48
33414;BME280;60055;41.884;12.534;2023-03-22T13:33:33;100958.09;;;20.66;50.38
33414;BME280;60055;41.884;12.534;2023-03-22T13:36:02;100956.03;;;20.70;50.77
33414;BME280;60055;41.884;12.534;2023-03-22T13:38:38;100952.22;;;20.85;50.36
33414;BME280;60055;41.884;12.534;2023-03-22T13:41:06;100954.31;;;20.69;51.38
33414;BME280;60055;41.884;12.534;2023-03-22T13:43:35;100960.19;;;20.50;51.39
33414;BME280;60055;41.884;12.534;2023-03-22T13:53:57;100952.00;;;20.28;52.05
33414;BME280;60055;41.884;12.534;2023-03-22T13:56:46;100949.41;;;20.26;52.15
33414;BME280;60055;41.884;12.534;2023-03-22T14:04:51;100951.06;;;19.91;52.19
33414;BME280;60055;41.884;12.534;2023-03-22T14:07:23;100946.72;;;20.26;51.05